sensor_id;sensor_type;location;lat;lon;timestamp;P1;durP1;ratioP1;P2;durP2;ratioP2
18796;SDS011;9526;52.612;13.300;2023-05-07T00:01:08;24.08;;;17.23;;
18796;SDS011;9526;52.612;13.300;2023-05-07T00:03:32;24.25;;;17.40;;
18796;SDS011;9526;52.612;13.300;2023-05-07T00:05:56;27.23;;;16.92;;
18796;SDS011;9526;52.612;13.300;2023-05-07T00:08:21;25.60;;;17.33;;
18796;SDS011;9526;52.612;13.300;2023-05-07T00:10:44;25.35;;;17.25;;
18796;SDS011;9526;52.612;13.300;2023-05-07T00:13:08;22.75;;;16.60;;
18796;SDS011;9526;52.612;13.300;2023-05-07T00:15:32;20.95;;;16.90;;
18796;SDS011;9526;52.612;13.300;2023-05-07T00:17:55;25.38;;;17.27;;
18796;SDS011;9526;52.612;13.300;2023-05-07T00:20:21;26.17;;;17.92;;
18796;SDS011;9526;52.612;13.300;2023-05-07T00:22:44;25.00;;;17.65;;
18796;SDS011;9526;52.612;13.300;2023-05-07T00:25:09;24.10;;;16.85;;
18796;SDS011;9526;52.612;13.300;2023-05-07T00:27:33;25.27;;;17.65;;
18796;SDS011;9526;52.612;13.300;2023-05-07T00:29:57;25.60;;;17.10;;
18796;SDS011;9526;52.612;13.300;2023-05-07T00:32:20;28.83;;;18.00;;
18796;SDS011;9526;52.612;13.300;2023-05-07T00:34:44;23.85;;;16.77;;
18796;SDS011;9526;52.612;13.300;2023-05-07T00:37:07;22.10;;;16.80;;
18796;SDS011;9526;52.612;13.300;2023-05-07T00:39:31;22.75;;;17.90;;
18796;SDS011;9526;52.612;13.300;2023-05-07T00:41:56;25.95;;;17.15;;
18796;SDS011;9526;52.612;13.300;2023-05-07T00:44:20;26.35;;;17.45;;
18796;SDS011;9526;52.612;13.300;2023-05-07T00:46:43;21.98;;;16.85;;
18796;SDS011;9526;52.612;13.300;2023-05-07T00:49:10;22.45;;;17.20;;
18796;SDS011;9526;52.612;13.300;2023-05-07T00:51:34;25.30;;;17.73;;
18796;SDS011;9526;52.612;13.300;2023-05-07T00:53:58;22.30;;;17.23;;
18796;SDS011;9526;52.612;13.300;2023-05-07T00:56:22;24.70;;;17.42;;
18796;SDS011;9526;52.612;13.300;2023-05-07T00:58:49;22.27;;;17.00;;
18796;SDS011;9526;52.612;13.300;2023-05-07T01:01:12;25.15;;;17.02;;
18796;SDS011;9526;52.612;13.300;2023-05-07T01:03:37;24.33;;;16.15;;
18796;SDS011;9526;52.612;13.300;2023-05-07T01:06:01;24.08;;;16.92;;
18796;SDS011;9526;52.612;13.300;2023-05-07T01:08:27;21.20;;;16.75;;
18796;SDS011;9526;52.612;13.300;2023-05-07T01:10:52;24.15;;;16.70;;
18796;SDS011;9526;52.612;13.300;2023-05-07T01:13:17;21.40;;;16.75;;
18796;SDS011;9526;52.612;13.300;2023-05-07T01:15:43;23.58;;;16.38;;
18796;SDS011;9526;52.612;13.300;2023-05-07T01:18:07;25.83;;;17.17;;
18796;SDS011;9526;52.612;13.300;2023-05-07T01:20:31;28.13;;;17.38;;
18796;SDS011;9526;52.612;13.300;2023-05-07T01:22:57;23.23;;;17.27;;
18796;SDS011;9526;52.612;13.300;2023-05-07T01:25:21;22.23;;;17.23;;
18796;SDS011;9526;52.612;13.300;2023-05-07T01:27:48;23.33;;;17.90;;
18796;SDS011;9526;52.612;13.300;2023-05-07T01:30:12;23.80;;;16.00;;
18796;SDS011;9526;52.612;13.300;2023-05-07T01:32:37;22.90;;;16.70;;
18796;SDS011;9526;52.612;13.300;2023-05-07T01:35:05;25.83;;;17.73;;
18796;SDS011;9526;52.612;13.300;2023-05-07T01:37:33;22.98;;;16.30;;
18796;SDS011;9526;52.612;13.300;2023-05-07T01:39:58;23.75;;;17.10;;
18796;SDS011;9526;52.612;13.300;2023-05-07T01:42:23;22.13;;;16.67;;
18796;SDS011;9526;52.612;13.300;2023-05-07T01:44:47;22.20;;;16.95;;
18796;SDS011;9526;52.612;13.300;2023-05-07T01:47:11;24.48;;;16.33;;
18796;SDS011;9526;52.612;13.300;2023-05-07T01:49:36;23.50;;;16.88;;
18796;SDS011;9526;52.612;13.300;2023-05-07T01:52:00;21.77;;;16.58;;
18796;SDS011;9526;52.612;13.300;2023-05-07T01:54:25;21.20;;;16.27;;
18796;SDS011;9526;52.612;13.300;2023-05-07T01:56:53;23.00;;;16.45;;
18796;SDS011;9526;52.612;13.300;2023-05-07T01:59:16;22.45;;;16.00;;
18796;SDS011;9526;52.612;13.300;2023-05-07T02:01:40;19.77;;;14.93;;
18796;SDS011;9526;52.612;13.300;2023-05-07T02:04:04;24.85;;;16.13;;
18796;SDS011;9526;52.612;13.300;2023-05-07T02:06:28;19.70;;;14.98;;
18796;SDS011;9526;52.612;13.300;2023-05-07T02:08:57;20.50;;;15.00;;
18796;SDS011;9526;52.612;13.300;2023-05-07T02:11:21;21.95;;;15.73;;
18796;SDS011;9526;52.612;13.300;2023-05-07T02:13:46;20.50;;;15.48;;
18796;SDS011;9526;52.612;13.300;2023-05-07T02:16:10;22.50;;;15.93;;
18796;SDS011;9526;52.612;13.300;2023-05-07T02:18:35;20.98;;;14.65;;
18796;SDS011;9526;52.612;13.300;2023-05-07T02:20:59;21.77;;;14.90;;
18796;SDS011;9526;52.612;13.300;2023-05-07T02:23:23;24.55;;;16.25;;
18796;SDS011;9526;52.612;13.300;2023-05-07T02:25:47;21.65;;;15.05;;
18796;SDS011;9526;52.612;13.300;2023-05-07T02:28:11;24.27;;;15.60;;
18796;SDS011;9526;52.612;13.300;2023-05-07T02:30:43;21.92;;;14.73;;
18796;SDS011;9526;52.612;13.300;2023-05-07T02:33:07;19.00;;;14.88;;
18796;SDS011;9526;52.612;13.300;2023-05-07T02:35:31;20.70;;;14.32;;
18796;SDS011;9526;52.612;13.300;2023-05-07T02:37:54;18.55;;;14.20;;
18796;SDS011;9526;52.612;13.300;2023-05-07T02:40:19;19.63;;;13.80;;
18796;SDS011;9526;52.612;13.300;2023-05-07T02:42:43;17.45;;;13.32;;
18796;SDS011;9526;52.612;13.300;2023-05-07T02:45:07;20.60;;;14.48;;
18796;SDS011;9526;52.612;13.300;2023-05-07T02:47:34;18.35;;;13.23;;
18796;SDS011;9526;52.612;13.300;2023-05-07T02:49:58;19.67;;;13.95;;
18796;SDS011;9526;52.612;13.300;2023-05-07T02:52:23;19.02;;;13.25;;
18796;SDS011;9526;52.612;13.300;2023-05-07T02:54:47;16.50;;;13.40;;
18796;SDS011;9526;52.612;13.300;2023-05-07T02:57:11;19.65;;;13.23;;
18796;SDS011;9526;52.612;13.300;2023-05-07T02:59:34;21.27;;;14.07;;
18796;SDS011;9526;52.612;13.300;2023-05-07T03:01:58;17.00;;;13.40;;
18796;SDS011;9526;52.612;13.300;2023-05-07T03:04:24;17.23;;;12.25;;
18796;SDS011;9526;52.612;13.300;2023-05-07T03:06:47;19.67;;;12.63;;
18796;SDS011;9526;52.612;13.300;2023-05-07T03:09:11;18.45;;;13.05;;
18796;SDS011;9526;52.612;13.300;2023-05-07T03:11:35;19.48;;;12.82;;
18796;SDS011;9526;52.612;13.300;2023-05-07T03:13:58;18.13;;;12.38;;
18796;SDS011;9526;52.612;13.300;2023-05-07T03:16:22;16.92;;;13.13;;
18796;SDS011;9526;52.612;13.300;2023-05-07T03:18:46;17.95;;;12.23;;
18796;SDS011;9526;52.612;13.300;2023-05-07T03:21:11;16.20;;;12.38;;
18796;SDS011;9526;52.612;13.300;2023-05-07T03:23:35;17.33;;;12.90;;
18796;SDS011;9526;52.612;13.300;2023-05-07T03:25:58;15.57;;;12.48;;
18796;SDS011;9526;52.612;13.300;2023-05-07T03:28:22;16.38;;;12.70;;
18796;SDS011;9526;52.612;13.300;2023-05-07T03:30:51;21.42;;;12.80;;
18796;SDS011;9526;52.612;13.300;2023-05-07T03:33:15;21.02;;;12.02;;
18796;SDS011;9526;52.612;13.300;2023-05-07T03:35:39;16.08;;;12.77;;
18796;SDS011;9526;52.612;13.300;2023-05-07T03:38:05;17.23;;;12.45;;
18796;SDS011;9526;52.612;13.300;2023-05-07T03:40:30;18.35;;;12.50;;
18796;SDS011;9526;52.612;13.300;2023-05-07T03:42:55;18.02;;;11.80;;
18796;SDS011;9526;52.612;13.300;2023-05-07T03:45:20;18.40;;;12.77;;
18796;SDS011;9526;52.612;13.300;2023-05-07T03:47:52;15.02;;;10.90;;
18796;SDS011;9526;52.612;13.300;2023-05-07T03:50:16;16.15;;;11.65;;
18796;SDS011;9526;52.612;13.300;2023-05-07T03:52:40;15.27;;;11.80;;
18796;SDS011;9526;52.612;13.300;2023-05-07T03:55:06;18.33;;;11.52;;
18796;SDS011;9526;52.612;13.300;2023-05-07T03:57:32;19.58;;;11.25;;
18796;SDS011;9526;52.612;13.300;2023-05-07T03:59:56;13.95;;;10.80;;
18796;SDS011;9526;52.612;13.300;2023-05-07T04:02:20;13.73;;;10.80;;
18796;SDS011;9526;52.612;13.300;2023-05-07T04:04:43;13.20;;;10.35;;
18796;SDS011;9526;52.612;13.300;2023-05-07T04:07:08;15.13;;;11.02;;
18796;SDS011;9526;52.612;13.300;2023-05-07T04:09:36;16.45;;;10.98;;
18796;SDS011;9526;52.612;13.300;2023-05-07T04:12:01;15.52;;;10.80;;
18796;SDS011;9526;52.612;13.300;2023-05-07T04:14:24;13.43;;;10.20;;
18796;SDS011;9526;52.612;13.300;2023-05-07T04:16:48;14.15;;;9.88;;
18796;SDS011;9526;52.612;13.300;2023-05-07T04:19:12;14.30;;;10.18;;
18796;SDS011;9526;52.612;13.300;2023-05-07T04:21:36;15.00;;;11.10;;
18796;SDS011;9526;52.612;13.300;2023-05-07T04:23:59;14.43;;;10.18;;
18796;SDS011;9526;52.612;13.300;2023-05-07T04:26:23;15.00;;;10.70;;
18796;SDS011;9526;52.612;13.300;2023-05-07T04:28:48;14.10;;;10.93;;
18796;SDS011;9526;52.612;13.300;2023-05-07T04:31:12;17.35;;;11.40;;
18796;SDS011;9526;52.612;13.300;2023-05-07T04:33:35;14.93;;;10.00;;
18796;SDS011;9526;52.612;13.300;2023-05-07T04:36:02;16.73;;;10.45;;
18796;SDS011;9526;52.612;13.300;2023-05-07T04:38:32;15.00;;;11.32;;
18796;SDS011;9526;52.612;13.300;2023-05-07T04:40:58;16.00;;;11.20;;
18796;SDS011;9526;52.612;13.300;2023-05-07T04:43:29;15.52;;;11.15;;
18796;SDS011;9526;52.612;13.300;2023-05-07T04:45:55;14.23;;;10.65;;
18796;SDS011;9526;52.612;13.300;2023-05-07T04:48:20;14.05;;;10.73;;
18796;SDS011;9526;52.612;13.300;2023-05-07T04:50:47;16.60;;;11.18;;
18796;SDS011;9526;52.612;13.300;2023-05-07T04:53:12;17.55;;;11.25;;
18796;SDS011;9526;52.612;13.300;2023-05-07T04:55:36;16.38;;;11.05;;
18796;SDS011;9526;52.612;13.300;2023-05-07T04:58:00;15.73;;;11.30;;
18796;SDS011;9526;52.612;13.300;2023-05-07T05:00:26;11.90;;;6.63;;
18796;SDS011;9526;52.612;13.300;2023-05-07T05:02:52;13.98;;;11.05;;
18796;SDS011;9526;52.612;13.300;2023-05-07T05:05:17;15.23;;;10.95;;
18796;SDS011;9526;52.612;13.300;2023-05-07T05:07:43;15.07;;;10.95;;
18796;SDS011;9526;52.612;13.300;2023-05-07T05:10:07;19.27;;;10.60;;
18796;SDS011;9526;52.612;13.300;2023-05-07T05:12:33;16.48;;;11.32;;
18796;SDS011;9526;52.612;13.300;2023-05-07T05:14:57;16.88;;;10.93;;
18796;SDS011;9526;52.612;13.300;2023-05-07T05:17:21;13.73;;;9.82;;
18796;SDS011;9526;52.612;13.300;2023-05-07T05:19:46;12.55;;;10.07;;
18796;SDS011;9526;52.612;13.300;2023-05-07T05:22:10;13.52;;;10.00;;
18796;SDS011;9526;52.612;13.300;2023-05-07T05:24:34;14.02;;;9.95;;
18796;SDS011;9526;52.612;13.300;2023-05-07T05:26:58;14.35;;;9.98;;
18796;SDS011;9526;52.612;13.300;2023-05-07T05:29:25;12.93;;;9.95;;
18796;SDS011;9526;52.612;13.300;2023-05-07T05:31:49;14.55;;;10.27;;
18796;SDS011;9526;52.612;13.300;2023-05-07T05:34:13;12.95;;;10.32;;
18796;SDS011;9526;52.612;13.300;2023-05-07T05:36:38;13.80;;;8.13;;
18796;SDS011;9526;52.612;13.300;2023-05-07T05:39:02;12.02;;;9.23;;
18796;SDS011;9526;52.612;13.300;2023-05-07T05:41:25;11.25;;;8.95;;
18796;SDS011;9526;52.612;13.300;2023-05-07T05:43:49;12.57;;;9.23;;
18796;SDS011;9526;52.612;13.300;2023-05-07T05:46:15;13.50;;;8.95;;
18796;SDS011;9526;52.612;13.300;2023-05-07T05:48:40;9.82;;;7.75;;
18796;SDS011;9526;52.612;13.300;2023-05-07T05:51:05;9.35;;;7.25;;
18796;SDS011;9526;52.612;13.300;2023-05-07T05:53:30;12.00;;;8.07;;
18796;SDS011;9526;52.612;13.300;2023-05-07T05:55:54;11.55;;;7.90;;
18796;SDS011;9526;52.612;13.300;2023-05-07T05:58:18;10.85;;;7.70;;
18796;SDS011;9526;52.612;13.300;2023-05-07T06:00:48;12.18;;;8.50;;
18796;SDS011;9526;52.612;13.300;2023-05-07T06:03:16;9.73;;;7.53;;
18796;SDS011;9526;52.612;13.300;2023-05-07T06:05:40;10.98;;;7.35;;
18796;SDS011;9526;52.612;13.300;2023-05-07T06:08:04;10.02;;;8.23;;
18796;SDS011;9526;52.612;13.300;2023-05-07T06:10:30;11.80;;;8.20;;
18796;SDS011;9526;52.612;13.300;2023-05-07T06:12:54;11.18;;;8.38;;
18796;SDS011;9526;52.612;13.300;2023-05-07T06:15:18;11.15;;;8.00;;
18796;SDS011;9526;52.612;13.300;2023-05-07T06:17:42;9.75;;;8.05;;
18796;SDS011;9526;52.612;13.300;2023-05-07T06:20:06;11.15;;;8.23;;
18796;SDS011;9526;52.612;13.300;2023-05-07T06:22:33;11.90;;;7.82;;
18796;SDS011;9526;52.612;13.300;2023-05-07T06:24:57;11.55;;;7.82;;
18796;SDS011;9526;52.612;13.300;2023-05-07T06:27:22;11.00;;;7.60;;
18796;SDS011;9526;52.612;13.300;2023-05-07T06:29:47;9.57;;;7.63;;
18796;SDS011;9526;52.612;13.300;2023-05-07T06:32:12;10.70;;;8.23;;
18796;SDS011;9526;52.612;13.300;2023-05-07T06:34:38;11.00;;;8.77;;
18796;SDS011;9526;52.612;13.300;2023-05-07T06:37:02;11.10;;;8.50;;
18796;SDS011;9526;52.612;13.300;2023-05-07T06:39:40;11.70;;;7.85;;
18796;SDS011;9526;52.612;13.300;2023-05-07T06:42:04;10.90;;;7.20;;
18796;SDS011;9526;52.612;13.300;2023-05-07T06:44:35;11.07;;;8.13;;
18796;SDS011;9526;52.612;13.300;2023-05-07T06:47:02;8.32;;;6.90;;
18796;SDS011;9526;52.612;13.300;2023-05-07T06:49:26;9.05;;;7.35;;
18796;SDS011;9526;52.612;13.300;2023-05-07T06:51:50;10.13;;;6.88;;
18796;SDS011;9526;52.612;13.300;2023-05-07T06:54:14;9.20;;;7.10;;
18796;SDS011;9526;52.612;13.300;2023-05-07T06:56:38;11.98;;;7.72;;
18796;SDS011;9526;52.612;13.300;2023-05-07T06:59:02;9.65;;;7.45;;
18796;SDS011;9526;52.612;13.300;2023-05-07T07:01:32;8.52;;;7.13;;
18796;SDS011;9526;52.612;13.300;2023-05-07T07:03:57;14.48;;;6.78;;
18796;SDS011;9526;52.612;13.300;2023-05-07T07:06:22;9.90;;;7.15;;
18796;SDS011;9526;52.612;13.300;2023-05-07T07:08:46;12.30;;;7.05;;
18796;SDS011;9526;52.612;13.300;2023-05-07T07:11:12;7.43;;;6.20;;
18796;SDS011;9526;52.612;13.300;2023-05-07T07:13:36;7.53;;;6.70;;
18796;SDS011;9526;52.612;13.300;2023-05-07T07:15:59;9.95;;;6.60;;
18796;SDS011;9526;52.612;13.300;2023-05-07T07:18:24;9.10;;;6.32;;
18796;SDS011;9526;52.612;13.300;2023-05-07T07:20:48;8.77;;;6.22;;
18796;SDS011;9526;52.612;13.300;2023-05-07T07:23:12;7.18;;;6.47;;
18796;SDS011;9526;52.612;13.300;2023-05-07T07:25:36;6.55;;;5.65;;
18796;SDS011;9526;52.612;13.300;2023-05-07T07:28:00;5.93;;;4.40;;
18796;SDS011;9526;52.612;13.300;2023-05-07T07:30:24;7.03;;;5.40;;
18796;SDS011;9526;52.612;13.300;2023-05-07T07:32:48;10.85;;;5.63;;
18796;SDS011;9526;52.612;13.300;2023-05-07T07:35:15;7.72;;;5.80;;
18796;SDS011;9526;52.612;13.300;2023-05-07T07:37:39;6.65;;;5.50;;
18796;SDS011;9526;52.612;13.300;2023-05-07T07:40:03;6.30;;;5.53;;
18796;SDS011;9526;52.612;13.300;2023-05-07T07:42:30;8.40;;;5.50;;
18796;SDS011;9526;52.612;13.300;2023-05-07T07:44:54;7.03;;;4.80;;
18796;SDS011;9526;52.612;13.300;2023-05-07T07:47:20;7.15;;;5.60;;
18796;SDS011;9526;52.612;13.300;2023-05-07T07:49:45;7.68;;;5.63;;
18796;SDS011;9526;52.612;13.300;2023-05-07T07:52:10;6.32;;;4.78;;
18796;SDS011;9526;52.612;13.300;2023-05-07T07:54:35;7.85;;;4.78;;
18796;SDS011;9526;52.612;13.300;2023-05-07T07:57:01;5.18;;;4.55;;
18796;SDS011;9526;52.612;13.300;2023-05-07T07:59:27;6.97;;;4.65;;
18796;SDS011;9526;52.612;13.300;2023-05-07T08:01:50;6.45;;;5.03;;
18796;SDS011;9526;52.612;13.300;2023-05-07T08:04:18;5.68;;;4.43;;
18796;SDS011;9526;52.612;13.300;2023-05-07T08:06:43;5.90;;;4.72;;
18796;SDS011;9526;52.612;13.300;2023-05-07T08:09:08;4.60;;;4.20;;
18796;SDS011;9526;52.612;13.300;2023-05-07T08:11:34;5.20;;;4.40;;
18796;SDS011;9526;52.612;13.300;2023-05-07T08:13:58;5.35;;;3.92;;
18796;SDS011;9526;52.612;13.300;2023-05-07T08:16:22;7.35;;;5.00;;
18796;SDS011;9526;52.612;13.300;2023-05-07T08:18:47;7.03;;;4.90;;
18796;SDS011;9526;52.612;13.300;2023-05-07T08:21:10;7.45;;;4.45;;
18796;SDS011;9526;52.612;13.300;2023-05-07T08:23:34;6.05;;;4.18;;
18796;SDS011;9526;52.612;13.300;2023-05-07T08:26:00;4.93;;;4.22;;
18796;SDS011;9526;52.612;13.300;2023-05-07T08:28:24;4.97;;;3.78;;
18796;SDS011;9526;52.612;13.300;2023-05-07T08:30:48;4.25;;;3.30;;
18796;SDS011;9526;52.612;13.300;2023-05-07T08:33:12;4.18;;;3.38;;
18796;SDS011;9526;52.612;13.300;2023-05-07T08:35:36;6.30;;;3.88;;
18796;SDS011;9526;52.612;13.300;2023-05-07T08:38:01;5.70;;;3.67;;
18796;SDS011;9526;52.612;13.300;2023-05-07T08:40:25;7.25;;;4.03;;
18796;SDS011;9526;52.612;13.300;2023-05-07T08:42:53;5.57;;;4.15;;
18796;SDS011;9526;52.612;13.300;2023-05-07T08:45:17;5.82;;;4.07;;
18796;SDS011;9526;52.612;13.300;2023-05-07T08:47:46;6.70;;;4.22;;
18796;SDS011;9526;52.612;13.300;2023-05-07T08:50:16;6.03;;;3.85;;
18796;SDS011;9526;52.612;13.300;2023-05-07T08:52:42;5.72;;;3.70;;
18796;SDS011;9526;52.612;13.300;2023-05-07T08:55:06;3.90;;;3.33;;
18796;SDS011;9526;52.612;13.300;2023-05-07T08:57:32;3.78;;;3.35;;
18796;SDS011;9526;52.612;13.300;2023-05-07T08:59:58;5.97;;;3.63;;
18796;SDS011;9526;52.612;13.300;2023-05-07T09:02:22;7.20;;;3.83;;
18796;SDS011;9526;52.612;13.300;2023-05-07T09:04:47;5.57;;;3.30;;
18796;SDS011;9526;52.612;13.300;2023-05-07T09:07:12;5.82;;;3.90;;
18796;SDS011;9526;52.612;13.300;2023-05-07T09:09:38;4.85;;;3.25;;
18796;SDS011;9526;52.612;13.300;2023-05-07T09:12:02;5.15;;;3.42;;
18796;SDS011;9526;52.612;13.300;2023-05-07T09:14:28;3.67;;;3.10;;
18796;SDS011;9526;52.612;13.300;2023-05-07T09:16:53;4.90;;;3.67;;
18796;SDS011;9526;52.612;13.300;2023-05-07T09:19:21;5.78;;;3.47;;
18796;SDS011;9526;52.612;13.300;2023-05-07T09:21:47;3.72;;;3.22;;
18796;SDS011;9526;52.612;13.300;2023-05-07T09:24:11;5.75;;;3.35;;
18796;SDS011;9526;52.612;13.300;2023-05-07T09:26:35;5.72;;;3.70;;
18796;SDS011;9526;52.612;13.300;2023-05-07T09:29:00;6.38;;;3.25;;
18796;SDS011;9526;52.612;13.300;2023-05-07T09:31:24;3.65;;;2.80;;
18796;SDS011;9526;52.612;13.300;2023-05-07T09:33:50;3.33;;;3.03;;
18796;SDS011;9526;52.612;13.300;2023-05-07T09:36:19;5.85;;;3.40;;
18796;SDS011;9526;52.612;13.300;2023-05-07T09:38:43;6.30;;;3.33;;
18796;SDS011;9526;52.612;13.300;2023-05-07T09:41:08;6.05;;;3.50;;
18796;SDS011;9526;52.612;13.300;2023-05-07T09:43:44;4.18;;;3.38;;
18796;SDS011;9526;52.612;13.300;2023-05-07T09:46:11;7.70;;;3.08;;
18796;SDS011;9526;52.612;13.300;2023-05-07T09:48:42;5.40;;;3.72;;
18796;SDS011;9526;52.612;13.300;2023-05-07T09:51:11;6.10;;;3.40;;
18796;SDS011;9526;52.612;13.300;2023-05-07T09:53:50;4.22;;;3.15;;
18796;SDS011;9526;52.612;13.300;2023-05-07T09:56:16;4.30;;;3.22;;
18796;SDS011;9526;52.612;13.300;2023-05-07T09:58:42;7.78;;;3.38;;
18796;SDS011;9526;52.612;13.300;2023-05-07T10:01:08;4.00;;;3.10;;
18796;SDS011;9526;52.612;13.300;2023-05-07T10:03:35;3.72;;;3.10;;
18796;SDS011;9526;52.612;13.300;2023-05-07T10:06:00;3.75;;;3.00;;
18796;SDS011;9526;52.612;13.300;2023-05-07T10:08:25;3.45;;;3.15;;
18796;SDS011;9526;52.612;13.300;2023-05-07T10:10:52;3.10;;;2.80;;
18796;SDS011;9526;52.612;13.300;2023-05-07T10:13:18;3.80;;;2.90;;
18796;SDS011;9526;52.612;13.300;2023-05-07T10:15:46;5.38;;;2.50;;
18796;SDS011;9526;52.612;13.300;2023-05-07T10:18:12;4.88;;;2.70;;
18796;SDS011;9526;52.612;13.300;2023-05-07T10:20:41;3.88;;;2.65;;
18796;SDS011;9526;52.612;13.300;2023-05-07T10:23:07;3.65;;;2.58;;
18796;SDS011;9526;52.612;13.300;2023-05-07T10:25:40;4.05;;;2.92;;
18796;SDS011;9526;52.612;13.300;2023-05-07T10:28:11;2.88;;;2.30;;
18796;SDS011;9526;52.612;13.300;2023-05-07T10:30:40;3.17;;;2.83;;
18796;SDS011;9526;52.612;13.300;2023-05-07T10:33:29;4.75;;;2.78;;
18796;SDS011;9526;52.612;13.300;2023-05-07T10:35:55;3.05;;;2.38;;
18796;SDS011;9526;52.612;13.300;2023-05-07T10:38:24;4.82;;;2.92;;
18796;SDS011;9526;52.612;13.300;2023-05-07T10:40:50;2.67;;;2.40;;
18796;SDS011;9526;52.612;13.300;2023-05-07T10:43:14;3.63;;;2.53;;
18796;SDS011;9526;52.612;13.300;2023-05-07T10:48:35;3.88;;;2.33;;
18796;SDS011;9526;52.612;13.300;2023-05-07T10:55:18;3.45;;;2.65;;
18796;SDS011;9526;52.612;13.300;2023-05-07T11:01:14;3.67;;;2.58;;
18796;SDS011;9526;52.612;13.300;2023-05-07T11:04:29;3.90;;;2.70;;
18796;SDS011;9526;52.612;13.300;2023-05-07T11:10:03;3.80;;;2.22;;
18796;SDS011;9526;52.612;13.300;2023-05-07T11:12:50;3.35;;;2.67;;
18796;SDS011;9526;52.612;13.300;2023-05-07T11:15:42;3.28;;;2.40;;
18796;SDS011;9526;52.612;13.300;2023-05-07T11:18:26;4.90;;;2.75;;
18796;SDS011;9526;52.612;13.300;2023-05-07T11:24:07;3.05;;;2.30;;
18796;SDS011;9526;52.612;13.300;2023-05-07T11:26:52;4.20;;;2.40;;
18796;SDS011;9526;52.612;13.300;2023-05-07T11:29:18;2.53;;;2.33;;
18796;SDS011;9526;52.612;13.300;2023-05-07T11:31:51;3.22;;;2.50;;
18796;SDS011;9526;52.612;13.300;2023-05-07T11:34:23;6.45;;;2.10;;
18796;SDS011;9526;52.612;13.300;2023-05-07T11:36:51;3.50;;;2.38;;
18796;SDS011;9526;52.612;13.300;2023-05-07T11:39:24;4.05;;;2.30;;
18796;SDS011;9526;52.612;13.300;2023-05-07T11:41:53;2.63;;;2.20;;
18796;SDS011;9526;52.612;13.300;2023-05-07T11:44:16;2.90;;;2.40;;
18796;SDS011;9526;52.612;13.300;2023-05-07T11:46:42;2.30;;;2.10;;
18796;SDS011;9526;52.612;13.300;2023-05-07T11:49:08;5.65;;;2.25;;
18796;SDS011;9526;52.612;13.300;2023-05-07T11:51:32;2.88;;;2.35;;
18796;SDS011;9526;52.612;13.300;2023-05-07T11:53:55;2.67;;;2.40;;
18796;SDS011;9526;52.612;13.300;2023-05-07T11:56:19;3.10;;;2.50;;
18796;SDS011;9526;52.612;13.300;2023-05-07T11:58:43;2.65;;;2.13;;
18796;SDS011;9526;52.612;13.300;2023-05-07T12:01:09;6.60;;;2.38;;
18796;SDS011;9526;52.612;13.300;2023-05-07T12:03:34;5.88;;;2.28;;
18796;SDS011;9526;52.612;13.300;2023-05-07T12:06:00;2.63;;;2.42;;
18796;SDS011;9526;52.612;13.300;2023-05-07T12:08:24;2.50;;;2.30;;
18796;SDS011;9526;52.612;13.300;2023-05-07T12:10:48;3.63;;;2.10;;
18796;SDS011;9526;52.612;13.300;2023-05-07T12:13:16;2.78;;;2.10;;
18796;SDS011;9526;52.612;13.300;2023-05-07T12:15:40;3.13;;;2.25;;
18796;SDS011;9526;52.612;13.300;2023-05-07T12:18:03;3.72;;;2.13;;
18796;SDS011;9526;52.612;13.300;2023-05-07T12:20:28;4.35;;;2.13;;
18796;SDS011;9526;52.612;13.300;2023-05-07T12:22:53;4.93;;;2.42;;
18796;SDS011;9526;52.612;13.300;2023-05-07T12:25:19;2.47;;;1.98;;
18796;SDS011;9526;52.612;13.300;2023-05-07T12:27:42;3.00;;;2.15;;
18796;SDS011;9526;52.612;13.300;2023-05-07T12:30:08;3.13;;;1.98;;
18796;SDS011;9526;52.612;13.300;2023-05-07T12:32:34;3.13;;;2.00;;
18796;SDS011;9526;52.612;13.300;2023-05-07T12:34:59;5.80;;;2.15;;
18796;SDS011;9526;52.612;13.300;2023-05-07T12:37:23;3.55;;;1.98;;
18796;SDS011;9526;52.612;13.300;2023-05-07T12:40:04;2.60;;;2.20;;
18796;SDS011;9526;52.612;13.300;2023-05-07T12:42:32;2.95;;;1.98;;
18796;SDS011;9526;52.612;13.300;2023-05-07T12:44:56;2.00;;;1.80;;
18796;SDS011;9526;52.612;13.300;2023-05-07T12:47:21;3.28;;;2.05;;
18796;SDS011;9526;52.612;13.300;2023-05-07T12:49:45;5.53;;;2.20;;
18796;SDS011;9526;52.612;13.300;2023-05-07T12:52:09;2.22;;;1.92;;
18796;SDS011;9526;52.612;13.300;2023-05-07T12:54:35;2.88;;;1.85;;
18796;SDS011;9526;52.612;13.300;2023-05-07T12:57:03;1.95;;;1.70;;
18796;SDS011;9526;52.612;13.300;2023-05-07T12:59:32;4.55;;;2.15;;
18796;SDS011;9526;52.612;13.300;2023-05-07T13:01:56;4.97;;;1.90;;
18796;SDS011;9526;52.612;13.300;2023-05-07T13:04:20;2.17;;;1.95;;
18796;SDS011;9526;52.612;13.300;2023-05-07T13:06:47;3.20;;;2.03;;
18796;SDS011;9526;52.612;13.300;2023-05-07T13:09:11;5.20;;;2.15;;
18796;SDS011;9526;52.612;13.300;2023-05-07T13:11:35;2.13;;;1.80;;
18796;SDS011;9526;52.612;13.300;2023-05-07T13:14:00;4.53;;;1.80;;
18796;SDS011;9526;52.612;13.300;2023-05-07T13:16:23;2.45;;;1.88;;
18796;SDS011;9526;52.612;13.300;2023-05-07T13:18:47;3.63;;;2.10;;
18796;SDS011;9526;52.612;13.300;2023-05-07T13:21:11;3.53;;;2.10;;
18796;SDS011;9526;52.612;13.300;2023-05-07T13:23:35;3.95;;;2.05;;
18796;SDS011;9526;52.612;13.300;2023-05-07T13:26:00;2.40;;;1.90;;
18796;SDS011;9526;52.612;13.300;2023-05-07T13:28:32;2.38;;;2.10;;
18796;SDS011;9526;52.612;13.300;2023-05-07T13:30:57;2.25;;;2.00;;
18796;SDS011;9526;52.612;13.300;2023-05-07T13:33:20;2.88;;;2.20;;
18796;SDS011;9526;52.612;13.300;2023-05-07T13:35:45;3.20;;;2.10;;
18796;SDS011;9526;52.612;13.300;2023-05-07T13:38:09;2.53;;;2.03;;
18796;SDS011;9526;52.612;13.300;2023-05-07T13:40:32;4.53;;;2.20;;
18796;SDS011;9526;52.612;13.300;2023-05-07T13:42:56;3.50;;;2.20;;
18796;SDS011;9526;52.612;13.300;2023-05-07T13:45:23;2.55;;;1.70;;
18796;SDS011;9526;52.612;13.300;2023-05-07T13:47:49;2.70;;;2.22;;
18796;SDS011;9526;52.612;13.300;2023-05-07T13:50:13;2.45;;;1.90;;
18796;SDS011;9526;52.612;13.300;2023-05-07T13:52:37;2.33;;;2.10;;
18796;SDS011;9526;52.612;13.300;2023-05-07T13:55:01;4.70;;;2.00;;
18796;SDS011;9526;52.612;13.300;2023-05-07T13:57:26;2.83;;;2.00;;
18796;SDS011;9526;52.612;13.300;2023-05-07T13:59:49;3.45;;;2.30;;
18796;SDS011;9526;52.612;13.300;2023-05-07T14:02:13;4.80;;;2.25;;
18796;SDS011;9526;52.612;13.300;2023-05-07T14:04:38;3.65;;;2.13;;
18796;SDS011;9526;52.612;13.300;2023-05-07T14:07:02;4.05;;;2.42;;
18796;SDS011;9526;52.612;13.300;2023-05-07T14:09:25;3.05;;;1.98;;
18796;SDS011;9526;52.612;13.300;2023-05-07T14:11:49;2.78;;;2.10;;
18796;SDS011;9526;52.612;13.300;2023-05-07T14:14:13;5.32;;;2.10;;
18796;SDS011;9526;52.612;13.300;2023-05-07T14:16:37;2.40;;;1.70;;
18796;SDS011;9526;52.612;13.300;2023-05-07T14:19:01;2.92;;;2.15;;
18796;SDS011;9526;52.612;13.300;2023-05-07T14:21:26;2.20;;;1.90;;
18796;SDS011;9526;52.612;13.300;2023-05-07T14:23:50;3.20;;;1.98;;
18796;SDS011;9526;52.612;13.300;2023-05-07T14:26:14;3.05;;;1.98;;
18796;SDS011;9526;52.612;13.300;2023-05-07T14:28:37;2.42;;;1.75;;
18796;SDS011;9526;52.612;13.300;2023-05-07T14:31:02;3.85;;;2.10;;
18796;SDS011;9526;52.612;13.300;2023-05-07T14:33:26;5.57;;;2.00;;
18796;SDS011;9526;52.612;13.300;2023-05-07T14:35:49;3.88;;;2.20;;
18796;SDS011;9526;52.612;13.300;2023-05-07T14:38:15;2.10;;;1.90;;
18796;SDS011;9526;52.612;13.300;2023-05-07T14:40:39;2.30;;;1.85;;
18796;SDS011;9526;52.612;13.300;2023-05-07T14:43:02;2.92;;;2.00;;